Vineland, NJ (08360)

8:54 AM EDT on October 31, 2014 (GMT -0400)
Ramblewood | Change Station
CLOSE
Current Station
Personal Weather Station
Location: Vineland, NJ
Elevation: 110 ft
Nearby Weather Stations

Elev 110 ft 39.50 °N, 75.01 °W | Updated 6 seconds ago

Clear
Clear
39.4 °F
Feels Like 39 °F
N
0.0
Wind Variable Wind from NNW
Gusts 0.0 mph

Today
High -- | Low -- °F
--% Chance of Precip.
Yesterday
High -- | Low -- °F
Precip. -- in
7:27 AM 5:59 PM
First Quarter, 55% visible
Pressure 30.00 in
Visibility 10.0 miles
Clouds Clear
Windchill 39 °F
Dew Point 0 °F
Humidity 19%
Rainfall 0.00 in
Snow Depth Not available.
UV 0 out of 12
Pollen .40 out of 12
Air Quality Not available.
Flu Activity Not available.
METAR KMIV 311154Z AUTO 36004KT 10SM CLR 02/00 A3000 RMK AO2 SLP159 T00170000 10028 20006 58002

More Conditions Fewer Conditions

Pressure 30.00 in
Visibility 10.0 miles
Clouds Clear
Windchill 39 °F
Dew Point 0 °F
Humidity 19%
Rainfall 0.00 in
Snow Depth Not available.
UV 0 out of 12
Pollen .40 out of 12
Air Quality Not available.
Flu Activity Not available.
METAR KMIV 311154Z AUTO 36004KT 10SM CLR 02/00 A3000 RMK AO2 SLP159 T00170000 10028 20006 58002

More Conditions Fewer Conditions

10-Day Weather Forecast

Almanac

Astronomy

Oct. 31, 2014 Rise Set
Actual Time
Civil Twilight
Nautical Twilight
Astronomical Twilight
Moon
Length of Visible Light
Length of Day
Tomorrow will be .
, % of the Moon is Illuminated

Today's Extremes

State Highs State Lows

Community

WunderPhotos

Upload Photos

1,766,593 photos uploaded!

WunderBlogs® & News

Nearby

Air Quality

  Air Quality AQ Index Pollutant
Not available.

Snow Depth

Station Depth Elevation

Earthquake Activity

City Distance Mag. Time & Date
Minimum magnitude displayed is 2.5.

Coastal Water Temperatures

Place Temperature

Nearby Weather Stations